Time;durP1;ratioP1;P1;durP2;ratioP2;P2;SDS_P1;SDS_P2;PMS_P1;PMS_P2;Temp;Humidity;BMP_temperature;BMP_pressure;BME280_temperature;BME280_humidity;BME280_pressure;Samples;Min_cycle;Max_cycle;Signal;HPM_P1;HPM_P2
2023/09/11 00:01:15;;;;;;;27.35;19.92;;;19.20;99.90;;;;;;5155604;27;20053;-26
2023/09/11 00:03:41;;;;;;;34.75;21.45;;;19.10;99.90;;;;;;5157147;27;20042;-26
2023/09/11 00:06:07;;;;;;;31.10;20.10;;;19.10;99.90;;;;;;5155766;27;20045;-27
2023/09/11 00:08:34;;;;;;;29.58;22.05;;;19.10;99.90;;;;;;5156915;27;20042;-26
2023/09/11 00:11:00;;;;;;;26.90;20.60;;;19.00;99.90;;;;;;5157453;27;20461;-26
2023/09/11 00:13:26;;;;;;;28.20;21.85;;;19.00;99.90;;;;;;5156819;27;20129;-27
2023/09/11 00:15:52;;;;;;;27.17;21.55;;;19.00;99.90;;;;;;5156462;27;20465;-26
2023/09/11 00:18:18;;;;;;;28.33;22.10;;;18.90;99.90;;;;;;5156775;27;20042;-26
2023/09/11 00:20:43;;;;;;;28.30;20.35;;;18.90;99.90;;;;;;5156738;27;20039;-26
2023/09/11 00:23:09;;;;;;;27.98;21.50;;;18.80;99.90;;;;;;5156623;27;20047;-26
2023/09/11 00:25:35;;;;;;;22.95;19.48;;;18.80;99.90;;;;;;5156661;27;20094;-26
2023/09/11 00:28:01;;;;;;;26.40;21.08;;;18.70;99.90;;;;;;5156608;27;20050;-27
2023/09/11 00:30:27;;;;;;;29.48;21.17;;;18.70;99.90;;;;;;5156496;27;20099;-27
2023/09/11 00:32:53;;;;;;;30.23;21.00;;;18.70;99.90;;;;;;5156482;27;20451;-27
2023/09/11 00:35:19;;;;;;;29.77;20.88;;;18.70;99.90;;;;;;5156733;27;20481;-26
2023/09/11 00:37:45;;;;;;;33.88;21.42;;;18.60;99.90;;;;;;5156097;27;20041;-27
2023/09/11 00:40:10;;;;;;;29.55;21.17;;;18.60;99.90;;;;;;5156314;27;20057;-27
2023/09/11 00:42:36;;;;;;;31.70;21.83;;;18.60;99.90;;;;;;5156319;27;20043;-26
2023/09/11 00:45:02;;;;;;;40.03;23.83;;;18.50;99.90;;;;;;5154660;27;20069;-27
2023/09/11 00:47:28;;;;;;;29.83;21.02;;;18.50;99.90;;;;;;5156174;27;20038;-26
2023/09/11 00:49:56;;;;;;;31.55;22.23;;;18.50;99.90;;;;;;5156110;27;20034;-26
2023/09/11 00:52:22;;;;;;;37.55;22.23;;;18.50;99.90;;;;;;5155986;27;20051;-25
2023/09/11 00:54:50;;;;;;;32.58;21.73;;;18.50;99.90;;;;;;5138761;27;20058;-26
2023/09/11 00:57:18;;;;;;;34.90;23.20;;;18.40;99.90;;;;;;5154829;27;20042;-27
2023/09/11 00:59:50;;;;;;;34.35;23.75;;;18.40;99.90;;;;;;5156062;27;20051;-26
2023/09/11 01:02:16;;;;;;;28.70;21.27;;;18.40;99.90;;;;;;5156317;27;20035;-27
2023/09/11 01:04:43;;;;;;;28.08;20.23;;;18.30;99.90;;;;;;5155978;27;20042;-26
2023/09/11 01:07:09;;;;;;;26.73;21.27;;;18.30;99.90;;;;;;5154772;27;20047;-26
2023/09/11 01:09:34;;;;;;;34.95;22.95;;;18.30;99.90;;;;;;5137652;27;20045;-26
2023/09/11 01:12:01;;;;;;;30.58;22.48;;;18.20;99.90;;;;;;5154588;27;20038;-27
2023/09/11 01:14:27;;;;;;;31.15;21.15;;;18.20;99.90;;;;;;5155535;27;20496;-26
2023/09/11 01:16:56;;;;;;;28.83;21.42;;;18.20;99.90;;;;;;5156551;27;20417;-26
2023/09/11 01:19:49;;;;;;;29.85;22.85;;;18.20;99.90;;;;;;5155628;27;20468;-26
2023/09/11 01:22:33;;;;;;;31.45;22.25;;;18.20;99.90;;;;;;5155665;27;20047;-27
2023/09/11 01:25:24;;;;;;;33.90;21.88;;;18.20;99.90;;;;;;5137638;27;20589;-26
2023/09/11 01:28:08;;;;;;;27.23;21.52;;;18.20;99.90;;;;;;5155568;27;20078;-26
2023/09/11 01:30:35;;;;;;;28.33;21.73;;;18.10;99.90;;;;;;5137189;27;20484;-26
2023/09/11 01:33:01;;;;;;;27.55;23.08;;;18.10;99.90;;;;;;5155557;27;20082;-26
2023/09/11 01:35:26;;;;;;;33.08;22.35;;;18.10;99.90;;;;;;5155747;27;20499;-26
2023/09/11 01:37:55;;;;;;;30.77;22.73;;;18.10;99.90;;;;;;5154274;27;20051;-27
2023/09/11 01:40:24;;;;;;;34.75;23.58;;;18.10;99.90;;;;;;5155447;27;20039;-26
2023/09/11 01:42:54;;;;;;;37.03;23.75;;;18.10;99.90;;;;;;5155386;27;20050;-26
2023/09/11 01:45:21;;;;;;;31.33;23.60;;;18.10;99.90;;;;;;5154423;27;20105;-26
2023/09/11 01:47:50;;;;;;;40.17;24.48;;;18.00;99.90;;;;;;5155263;27;20047;-26
2023/09/11 01:50:18;;;;;;;32.72;23.75;;;18.00;99.90;;;;;;5154121;27;20051;-26
2023/09/11 01:52:48;;;;;;;31.77;24.30;;;18.00;99.90;;;;;;5155262;27;20050;-26
2023/09/11 01:55:15;;;;;;;29.10;22.40;;;18.00;99.90;;;;;;5154633;27;20047;-26
2023/09/11 01:57:40;;;;;;;34.80;23.25;;;18.00;99.90;;;;;;5157460;27;20047;-26
2023/09/11 02:00:08;;;;;;;35.75;24.27;;;18.00;99.90;;;;;;5158238;27;20047;-26
2023/09/11 02:02:34;;;;;;;43.38;24.42;;;18.00;99.90;;;;;;5159734;27;20396;-26
2023/09/11 02:05:00;;;;;;;30.27;22.20;;;18.00;99.90;;;;;;5159966;27;20043;-26
2023/09/11 02:07:26;;;;;;;33.40;23.00;;;18.00;99.90;;;;;;5159350;27;20054;-26
2023/09/11 02:09:52;;;;;;;35.75;24.33;;;18.00;99.90;;;;;;5159290;27;20045;-27
2023/09/11 02:12:17;;;;;;;34.88;22.73;;;18.00;99.90;;;;;;5159250;27;20099;-26
2023/09/11 02:14:43;;;;;;;34.60;23.23;;;18.00;99.90;;;;;;5159542;27;20038;-27
2023/09/11 02:17:09;;;;;;;34.15;23.92;;;18.00;99.90;;;;;;5159266;27;20487;-26
2023/09/11 02:19:34;;;;;;;30.05;20.27;;;18.00;99.90;;;;;;5159141;27;20047;-26
2023/09/11 02:22:01;;;;;;;44.58;25.23;;;17.90;99.90;;;;;;5159136;27;20052;-26
2023/09/11 02:24:26;;;;;;;36.80;23.05;;;17.90;99.90;;;;;;5158346;27;20133;-26
2023/09/11 02:26:55;;;;;;;39.63;23.50;;;17.90;99.90;;;;;;5158682;27;20125;-26
2023/09/11 02:29:20;;;;;;;38.55;24.40;;;17.90;99.90;;;;;;5158137;27;20125;-26
2023/09/11 02:31:46;;;;;;;36.67;24.27;;;17.90;99.90;;;;;;5157754;27;20114;-26
2023/09/11 02:34:12;;;;;;;31.15;23.92;;;17.90;99.90;;;;;;5158994;27;20476;-27
2023/09/11 02:36:38;;;;;;;32.90;22.75;;;17.80;99.90;;;;;;5158080;27;20071;-26
2023/09/11 02:39:03;;;;;;;45.95;25.35;;;17.80;99.90;;;;;;5159329;27;20039;-26
2023/09/11 02:41:29;;;;;;;31.25;22.45;;;17.90;99.90;;;;;;5158786;27;20046;-26
2023/09/11 02:43:55;;;;;;;34.58;24.20;;;17.90;99.90;;;;;;5157465;27;20505;-26
2023/09/11 02:46:21;;;;;;;31.98;24.08;;;17.90;99.90;;;;;;5157630;27;20488;-26
2023/09/11 02:48:47;;;;;;;32.47;23.35;;;17.90;99.90;;;;;;5157957;27;20046;-26
2023/09/11 02:51:13;;;;;;;39.72;24.70;;;17.90;99.90;;;;;;5158558;27;20047;-26
2023/09/11 02:53:39;;;;;;;35.80;25.85;;;17.90;99.90;;;;;;5158750;27;20059;-26
2023/09/11 02:56:05;;;;;;;38.63;24.40;;;17.90;99.90;;;;;;5157262;27;20053;-26
2023/09/11 02:58:31;;;;;;;35.92;25.80;;;17.90;99.90;;;;;;5158440;27;20545;-26
2023/09/11 03:01:06;;;;;;;32.90;23.88;;;17.90;99.90;;;;;;5158338;27;20072;-26
2023/09/11 03:03:32;;;;;;;36.65;24.60;;;17.90;99.90;;;;;;5157348;27;20445;-26
2023/09/11 03:06:00;;;;;;;29.90;22.83;;;17.90;99.90;;;;;;5158272;27;20125;-26
2023/09/11 03:08:26;;;;;;;34.72;24.50;;;17.90;99.90;;;;;;5157498;27;20484;-26
2023/09/11 03:10:52;;;;;;;33.75;23.90;;;17.90;99.90;;;;;;5157210;27;20043;-26
2023/09/11 03:13:18;;;;;;;38.85;24.55;;;17.90;99.90;;;;;;5157822;27;20576;-26
2023/09/11 03:15:44;;;;;;;36.72;23.92;;;17.90;99.90;;;;;;5139931;27;20051;-26
2023/09/11 03:18:10;;;;;;;34.38;25.00;;;17.90;99.90;;;;;;5158602;27;20507;-26
2023/09/11 03:20:35;;;;;;;30.77;22.50;;;17.90;99.90;;;;;;5157021;27;20042;-26
2023/09/11 03:23:01;;;;;;;34.25;23.08;;;17.90;99.90;;;;;;5158492;27;20435;-26
2023/09/11 03:25:27;;;;;;;34.28;23.38;;;18.00;99.90;;;;;;5157952;27;20068;-26
2023/09/11 03:27:53;;;;;;;32.67;21.55;;;17.90;99.90;;;;;;5157880;27;20163;-26
2023/09/11 03:30:19;;;;;;;30.95;23.25;;;18.00;99.90;;;;;;5157036;27;20039;-27
2023/09/11 03:32:44;;;;;;;44.45;23.88;;;18.00;99.90;;;;;;5157707;27;20122;-26
2023/09/11 03:35:10;;;;;;;39.25;22.80;;;18.00;99.90;;;;;;5156526;27;20046;-26
2023/09/11 03:37:36;;;;;;;39.78;22.27;;;17.90;99.90;;;;;;5158179;27;20042;-26
2023/09/11 03:40:07;;;;;;;32.35;21.50;;;17.90;99.90;;;;;;5157552;27;20237;-26
2023/09/11 03:42:36;;;;;;;38.67;21.65;;;17.80;99.90;;;;;;5157623;27;20103;-26
2023/09/11 03:45:01;;;;;;;31.73;22.20;;;17.80;99.90;;;;;;5157204;27;20549;-26
2023/09/11 03:47:27;;;;;;;38.38;22.85;;;17.90;99.90;;;;;;5157668;27;20046;-26
2023/09/11 03:49:53;;;;;;;37.97;22.70;;;17.80;99.90;;;;;;5157580;27;20045;-26
2023/09/11 03:52:18;;;;;;;35.42;22.48;;;17.90;99.90;;;;;;5121751;27;20400;-26
2023/09/11 03:54:44;;;;;;;38.70;21.77;;;17.90;99.90;;;;;;5156198;27;20058;-26
2023/09/11 03:57:10;;;;;;;33.38;21.48;;;17.90;99.90;;;;;;5157223;27;20484;-26
2023/09/11 03:59:36;;;;;;;36.47;23.00;;;17.90;99.90;;;;;;5157223;27;20034;-25
2023/09/11 04:02:01;;;;;;;43.90;23.85;;;17.90;99.90;;;;;;5157208;27;20065;-26
2023/09/11 04:04:27;;;;;;;37.55;22.13;;;17.90;99.90;;;;;;5157609;27;20468;-26
2023/09/11 04:06:53;;;;;;;35.47;21.90;;;17.90;99.90;;;;;;5155889;27;20042;-26
2023/09/11 04:09:18;;;;;;;31.40;21.50;;;17.90;99.90;;;;;;5155744;27;20099;-26
2023/09/11 04:11:44;;;;;;;37.60;20.70;;;17.90;99.90;;;;;;5157794;27;20050;-26
2023/09/11 04:14:10;;;;;;;33.13;20.63;;;17.90;99.90;;;;;;5156852;27;20476;-26
2023/09/11 04:16:35;;;;;;;37.83;20.70;;;17.90;99.90;;;;;;5156814;27;20096;-26
2023/09/11 04:19:01;;;;;;;33.85;20.23;;;17.90;99.90;;;;;;5155552;27;20046;-26
2023/09/11 04:21:27;;;;;;;31.50;20.42;;;17.90;99.90;;;;;;5156804;27;20076;-26
2023/09/11 04:23:53;;;;;;;29.27;19.45;;;17.90;99.90;;;;;;5155625;27;20097;-26
2023/09/11 04:26:18;;;;;;;29.67;21.52;;;17.90;99.90;;;;;;5155570;27;20518;-26
2023/09/11 04:28:44;;;;;;;31.52;19.45;;;17.90;99.90;;;;;;5157113;27;20039;-25
2023/09/11 04:31:10;;;;;;;34.30;21.08;;;17.90;99.90;;;;;;5155720;27;20421;-26
2023/09/11 04:33:35;;;;;;;32.55;19.10;;;17.80;99.90;;;;;;5156196;27;20503;-26
2023/09/11 04:36:01;;;;;;;32.15;21.38;;;17.80;99.90;;;;;;5155772;27;20047;-26
2023/09/11 04:38:27;;;;;;;38.13;19.90;;;17.80;99.90;;;;;;5157221;27;20449;-26
2023/09/11 04:40:59;;;;;;;30.10;20.77;;;17.80;99.90;;;;;;5155186;27;20085;-26
2023/09/11 04:43:25;;;;;;;37.50;21.33;;;17.70;99.90;;;;;;5155609;27;20038;-26
2023/09/11 04:45:51;;;;;;;41.78;21.25;;;17.70;99.90;;;;;;5156164;27;20039;-26
2023/09/11 04:48:17;;;;;;;39.25;21.25;;;17.70;99.90;;;;;;5155153;27;20103;-26
2023/09/11 04:50:42;;;;;;;35.00;22.42;;;17.70;99.90;;;;;;5155292;27;20400;-26
2023/09/11 04:53:08;;;;;;;27.83;20.38;;;17.60;99.90;;;;;;5137824;27;20050;-26
2023/09/11 04:55:34;;;;;;;33.53;21.13;;;17.60;99.90;;;;;;5156100;27;20053;-26
2023/09/11 04:58:00;;;;;;;35.30;21.13;;;17.70;99.90;;;;;;5154800;27;20488;-26
2023/09/11 05:00:26;;;;;;;35.35;21.90;;;17.60;99.90;;;;;;5155968;27;20038;-26
2023/09/11 05:02:52;;;;;;;32.05;21.92;;;17.70;99.90;;;;;;5155954;27;20074;-26
2023/09/11 05:05:18;;;;;;;35.95;20.45;;;17.70;99.90;;;;;;5155292;27;20082;-26
2023/09/11 05:07:43;;;;;;;30.42;18.90;;;17.70;99.90;;;;;;5155912;27;20133;-26
2023/09/11 05:10:09;;;;;;;37.95;20.02;;;17.80;99.90;;;;;;5154524;27;20046;-26
2023/09/11 05:12:35;;;;;;;36.00;20.83;;;17.90;99.90;;;;;;5156452;27;20042;-26
2023/09/11 05:15:02;;;;;;;40.83;19.55;;;17.90;99.90;;;;;;5155686;27;20533;-26
2023/09/11 05:17:28;;;;;;;31.55;19.40;;;18.00;99.90;;;;;;5154783;27;20047;-26
2023/09/11 05:19:53;;;;;;;37.05;19.23;;;18.00;99.90;;;;;;5154523;27;20126;-26
2023/09/11 05:22:19;;;;;;;34.45;19.38;;;18.00;99.90;;;;;;5138275;27;20050;-26
2023/09/11 05:24:45;;;;;;;29.52;18.25;;;18.10;99.90;;;;;;5155911;27;20641;-26
2023/09/11 05:27:11;;;;;;;39.33;18.83;;;18.00;99.90;;;;;;5155613;27;20047;-28
2023/09/11 05:29:36;;;;;;;27.58;18.52;;;18.00;99.90;;;;;;5155951;27;20125;-26
2023/09/11 05:32:02;;;;;;;31.15;18.05;;;18.10;99.90;;;;;;5155439;27;20080;-27
2023/09/11 05:34:28;;;;;;;31.20;17.92;;;18.10;99.90;;;;;;5155769;27;20042;-27
2023/09/11 05:36:54;;;;;;;27.58;18.30;;;18.10;99.90;;;;;;5155499;27;20516;-26
2023/09/11 05:39:20;;;;;;;32.03;17.13;;;18.20;99.90;;;;;;5154283;27;20085;-26
2023/09/11 05:41:46;;;;;;;28.95;17.63;;;18.20;99.90;;;;;;5155427;27;20042;-26
2023/09/11 05:44:12;;;;;;;29.10;18.73;;;18.30;99.90;;;;;;5156230;27;20038;-26
2023/09/11 05:46:38;;;;;;;31.00;18.10;;;18.30;99.90;;;;;;5154270;27;20136;-26
2023/09/11 05:49:04;;;;;;;34.08;17.35;;;18.40;99.90;;;;;;5155884;27;20046;-26
2023/09/11 05:51:30;;;;;;;30.83;17.98;;;18.40;99.90;;;;;;5155017;27;20043;-26
2023/09/11 05:53:55;;;;;;;35.15;17.15;;;18.50;99.90;;;;;;5155063;27;20058;-26
2023/09/11 05:56:21;;;;;;;29.52;16.90;;;18.50;99.90;;;;;;5155335;27;20046;-26
2023/09/11 05:58:47;;;;;;;31.92;17.75;;;18.60;99.90;;;;;;5155548;27;20372;-26
2023/09/11 06:01:13;;;;;;;30.83;18.75;;;18.70;99.90;;;;;;5155245;27;20046;-26
2023/09/11 06:03:39;;;;;;;27.15;16.67;;;18.70;99.90;;;;;;5154058;27;20078;-27
2023/09/11 06:06:05;;;;;;;34.38;16.55;;;18.80;99.90;;;;;;5155240;27;20492;-26
2023/09/11 06:08:32;;;;;;;34.10;17.38;;;18.90;99.90;;;;;;5155667;27;20119;-26
2023/09/11 06:10:59;;;;;;;28.90;16.65;;;19.00;99.90;;;;;;5154206;27;20038;-26
2023/09/11 06:13:26;;;;;;;37.00;17.20;;;19.10;99.90;;;;;;5154748;27;20082;-26
2023/09/11 06:15:52;;;;;;;36.85;16.38;;;19.20;99.90;;;;;;5155158;27;20091;-26
2023/09/11 06:18:18;;;;;;;29.30;17.63;;;19.30;99.90;;;;;;5154932;27;20043;-26
2023/09/11 06:20:43;;;;;;;33.95;16.10;;;19.40;99.90;;;;;;5136946;27;20047;-26
2023/09/11 06:23:11;;;;;;;33.17;16.65;;;19.50;99.90;;;;;;5155297;27;20052;-26
2023/09/11 06:25:37;;;;;;;30.73;15.43;;;19.60;99.90;;;;;;5154632;27;20061;-27
2023/09/11 06:28:03;;;;;;;30.13;16.50;;;19.60;99.90;;;;;;5154940;27;20047;-26
2023/09/11 06:30:32;;;;;;;30.08;16.52;;;19.70;99.90;;;;;;5153685;27;20100;-26
2023/09/11 06:32:57;;;;;;;34.15;16.25;;;19.80;99.90;;;;;;5154957;27;20111;-26
2023/09/11 06:35:23;;;;;;;28.42;13.60;;;19.90;99.90;;;;;;5155557;27;20051;-26
2023/09/11 06:37:49;;;;;;;25.88;15.00;;;20.00;99.90;;;;;;5154927;27;20047;-26
2023/09/11 06:40:15;;;;;;;27.05;14.98;;;20.10;99.90;;;;;;5153617;27;20047;-26
2023/09/11 06:42:40;;;;;;;30.08;15.05;;;20.30;99.90;;;;;;5155450;27;20057;-26
2023/09/11 06:45:07;;;;;;;36.53;15.52;;;20.40;99.90;;;;;;5158677;27;20078;-26
2023/09/11 06:47:33;;;;;;;29.98;14.63;;;20.50;99.90;;;;;;5158401;27;20054;-26
2023/09/11 06:49:59;;;;;;;33.38;15.40;;;20.60;99.90;;;;;;5158510;27;20050;-26
2023/09/11 06:52:25;;;;;;;27.38;13.50;;;20.80;99.90;;;;;;5159148;27;20379;-27
2023/09/11 06:54:51;;;;;;;23.58;13.77;;;20.90;99.90;;;;;;5157403;27;20054;-26
2023/09/11 06:57:16;;;;;;;22.77;14.02;;;20.90;99.90;;;;;;5158152;27;20054;-26
2023/09/11 06:59:42;;;;;;;29.58;13.75;;;21.00;99.90;;;;;;5140268;27;20043;-26
2023/09/11 07:02:08;;;;;;;29.33;15.98;;;21.20;99.90;;;;;;5158948;27;20038;-27
2023/09/11 07:04:34;;;;;;;27.70;14.07;;;21.30;99.90;;;;;;5158348;27;20049;-26
2023/09/11 07:07:00;;;;;;;21.70;12.70;;;21.40;99.90;;;;;;5157124;27;20047;-26
2023/09/11 07:09:25;;;;;;;26.70;13.52;;;21.50;99.90;;;;;;5158106;27;20472;-26
2023/09/11 07:11:52;;;;;;;25.55;13.55;;;21.60;99.90;;;;;;5139839;27;20068;-27
2023/09/11 07:14:22;;;;;;;25.67;12.13;;;21.90;99.90;;;;;;5157120;27;20477;-26
2023/09/11 07:16:48;;;;;;;27.38;13.20;;;22.00;99.90;;;;;;5158118;27;20385;-26
2023/09/11 07:19:15;;;;;;;22.08;12.65;;;22.20;99.90;;;;;;5158359;27;20091;-28
2023/09/11 07:21:41;;;;;;;27.88;13.43;;;22.40;99.90;;;;;;5157951;27;20555;-26
2023/09/11 07:24:07;;;;;;;23.67;11.95;;;22.50;99.90;;;;;;5156747;27;20129;-26
2023/09/11 07:26:33;;;;;;;20.77;12.30;;;22.50;99.90;;;;;;5157841;27;20117;-27
2023/09/11 07:29:04;;;;;;;22.80;12.95;;;22.50;99.90;;;;;;5156613;27;20038;-26
2023/09/11 07:31:31;;;;;;;26.02;12.30;;;22.50;99.90;;;;;;5158493;27;20050;-27
2023/09/11 07:33:57;;;;;;;20.50;12.75;;;22.60;99.90;;;;;;5157593;27;20042;-26
2023/09/11 07:36:24;;;;;;;20.25;12.40;;;22.60;99.90;;;;;;5157692;27;20054;-27
2023/09/11 07:38:49;;;;;;;24.17;14.38;;;22.70;99.90;;;;;;5158176;27;20049;-27
2023/09/11 07:41:17;;;;;;;26.88;12.02;;;22.80;99.90;;;;;;5157526;27;20043;-26
2023/09/11 07:43:49;;;;;;;21.95;11.48;;;23.00;99.90;;;;;;5157224;27;20119;-27
2023/09/11 07:46:20;;;;;;;17.70;10.57;;;23.20;99.90;;;;;;5140482;27;20043;-26
2023/09/11 07:48:46;;;;;;;21.70;11.23;;;23.30;99.90;;;;;;5156296;27;20492;-26
2023/09/11 07:51:14;;;;;;;21.02;10.55;;;23.40;99.90;;;;;;5157361;27;20046;-26
2023/09/11 07:53:40;;;;;;;18.95;10.57;;;23.50;99.90;;;;;;5156601;27;20050;-26
2023/09/11 07:56:07;;;;;;;16.67;10.15;;;23.50;99.90;;;;;;5156099;27;20043;-26
2023/09/11 07:58:34;;;;;;;20.23;11.35;;;23.60;99.90;;;;;;5157775;27;20102;-27
2023/09/11 08:01:00;;;;;;;24.60;11.68;;;23.50;99.90;;;;;;5156269;27;20121;-26
2023/09/11 08:03:25;;;;;;;22.85;11.20;;;23.60;99.90;;;;;;5156151;27;20454;-27
2023/09/11 08:05:53;;;;;;;23.05;10.88;;;23.70;99.90;;;;;;5157196;27;20051;-27
2023/09/11 08:08:19;;;;;;;29.92;10.50;;;23.80;99.90;;;;;;5157140;27;20178;-26
2023/09/11 08:10:44;;;;;;;17.10;10.75;;;23.90;99.90;;;;;;5156988;27;20046;-27
2023/09/11 08:13:10;;;;;;;25.55;11.13;;;24.00;99.90;;;;;;5156920;27;20042;-27
2023/09/11 08:15:36;;;;;;;17.02;9.75;;;24.10;99.90;;;;;;5139547;27;20487;-27
2023/09/11 08:18:01;;;;;;;16.27;10.13;;;24.30;99.90;;;;;;5156320;27;20046;-26
2023/09/11 08:20:28;;;;;;;22.52;10.35;;;24.40;99.90;;;;;;5156788;27;20057;-27
2023/09/11 08:22:54;;;;;;;19.77;10.23;;;24.50;87.90;;;;;;5157565;27;20050;-28
2023/09/11 08:25:19;;;;;;;18.83;8.75;;;24.60;43.60;;;;;;5156763;27;20441;-27
2023/09/11 08:27:46;;;;;;;20.00;8.50;;;24.70;6.60;;;;;;5155380;27;20049;-27
2023/09/11 08:30:12;;;;;;;13.60;8.45;;;24.80;1.00;;;;;;5155368;27;20038;-27
2023/09/11 08:32:37;;;;;;;14.52;8.73;;;24.90;1.00;;;;;;5156447;27;20088;-26
2023/09/11 08:35:04;;;;;;;23.52;8.70;;;25.00;99.90;;;;;;5156482;27;20441;-26
2023/09/11 08:37:33;;;;;;;15.27;8.63;;;25.00;99.90;;;;;;5156477;27;20126;-26
2023/09/11 08:39:58;;;;;;;19.08;7.93;;;25.10;99.90;;;;;;5156446;27;20077;-27
2023/09/11 08:42:24;;;;;;;13.05;8.63;;;25.10;99.90;;;;;;5156400;27;20082;-27
2023/09/11 08:44:50;;;;;;;16.30;9.27;;;25.10;99.90;;;;;;5138271;27;20042;-27
2023/09/11 08:47:18;;;;;;;15.18;8.80;;;25.10;99.90;;;;;;5156203;27;20042;-27
2023/09/11 08:49:54;;;;;;;18.35;9.63;;;25.10;99.90;;;;;;5156734;27;20380;-27
2023/09/11 08:52:20;;;;;;;15.40;9.52;;;25.30;99.90;;;;;;5157116;27;20098;-27
2023/09/11 08:54:52;;;;;;;20.58;9.18;;;25.30;99.90;;;;;;5154612;27;20051;-27
2023/09/11 08:57:21;;;;;;;17.48;8.43;;;25.40;97.40;;;;;;5154932;27;20054;-27
2023/09/11 08:59:51;;;;;;;20.58;8.82;;;25.40;99.90;;;;;;5154882;27;20085;-27
2023/09/11 09:02:19;;;;;;;15.60;8.40;;;25.60;99.90;;;;;;5156925;27;20121;-27
2023/09/11 09:04:45;;;;;;;12.40;8.20;;;25.70;65.40;;;;;;5155339;27;20082;-28
2023/09/11 09:07:12;;;;;;;15.75;8.63;;;25.90;1.00;;;;;;5155951;27;20043;-27
2023/09/11 09:09:40;;;;;;;16.83;8.63;;;26.50;1.00;;;;;;5155833;27;20039;-27
2023/09/11 09:12:06;;;;;;;16.13;7.63;;;27.30;99.90;;;;;;5156699;27;20043;-26
2023/09/11 09:14:34;;;;;;;15.32;8.70;;;27.90;99.90;;;;;;5156039;27;20400;-27
2023/09/11 09:16:59;;;;;;;14.43;8.20;;;28.10;99.90;;;;;;5155775;27;20042;-27
2023/09/11 09:19:25;;;;;;;17.00;8.77;;;28.50;1.00;;;;;;5156255;27;20091;-27
2023/09/11 09:22:06;;;;;;;15.65;8.50;;;28.70;99.90;;;;;;5155775;27;20047;-27
2023/09/11 09:24:36;;;;;;;15.05;8.80;;;29.10;1.00;;;;;;5155643;27;20046;-27
2023/09/11 09:27:04;;;;;;;15.32;8.45;;;29.40;1.00;;;;;;5155680;27;20047;-27
2023/09/11 09:29:34;;;;;;;17.17;9.18;;;29.50;1.00;;;;;;5155561;27;20046;-26
2023/09/11 09:32:01;;;;;;;16.80;9.25;;;29.60;99.90;;;;;;5154367;27;20046;-27
2023/09/11 09:34:27;;;;;;;17.52;9.88;;;29.30;99.90;;;;;;5155603;27;20050;-27
2023/09/11 09:36:54;;;;;;;15.48;9.23;;;29.30;99.90;;;;;;5156069;27;20057;-27
2023/09/11 09:39:27;;;;;;;17.77;9.23;;;29.60;99.90;;;;;;5154508;27;20052;-26
2023/09/11 09:41:57;;;;;;;14.60;9.20;;;29.40;99.90;;;;;;5155525;27;20042;-27
2023/09/11 09:44:52;;;;;;;17.33;9.60;;;29.40;99.90;;;;;;5155351;27;20047;-26
2023/09/11 09:47:19;;;;;;;13.32;9.68;;;29.40;99.90;;;;;;5153549;27;20051;-26
2023/09/11 09:50:00;;;;;;;21.73;10.10;;;29.60;99.90;;;;;;5155585;27;20430;-27
2023/09/11 09:52:28;;;;;;;17.13;10.45;;;29.60;1.00;;;;;;5155616;27;20498;-27
2023/09/11 09:54:56;;;;;;;16.65;9.63;;;29.70;45.30;;;;;;5114889;28;20130;-27
2023/09/11 09:57:23;;;;;;;18.40;10.68;;;30.10;81.80;;;;;;5114699;28;20051;-27
2023/09/11 09:59:53;;;;;;;14.70;10.32;;;30.20;21.80;;;;;;5114013;28;20121;-27
2023/09/11 10:02:38;;;;;;;22.67;10.80;;;30.20;1.00;;;;;;5096086;28;20117;-27
2023/09/11 10:05:07;;;;;;;15.63;9.85;;;30.50;1.00;;;;;;5114267;28;20405;-27
2023/09/11 10:07:45;;;;;;;18.80;9.82;;;30.10;1.00;;;;;;5113936;28;20051;-27
2023/09/11 10:10:30;;;;;;;16.13;9.75;;;29.80;1.00;;;;;;5114464;28;20039;-27
2023/09/11 10:13:08;;;;;;;18.35;10.50;;;29.20;1.00;;;;;;5114200;28;20043;-26
2023/09/11 10:15:36;;;;;;;19.35;10.70;;;29.30;1.00;;;;;;5114284;28;20040;-27
2023/09/11 10:18:03;;;;;;;19.48;10.52;;;29.60;90.60;;;;;;5116095;28;20511;-27
2023/09/11 10:20:29;;;;;;;19.48;12.02;;;29.90;99.90;;;;;;5118739;28;20036;-28
2023/09/11 10:23:00;;;;;;;24.48;11.82;;;30.30;6.80;;;;;;5118436;28;20040;-27
2023/09/11 10:25:33;;;;;;;20.40;12.10;;;30.40;1.00;;;;;;5118498;28;20135;-27
2023/09/11 10:28:05;;;;;;;20.75;13.20;;;30.10;1.00;;;;;;5117157;28;20052;-27
2023/09/11 10:31:07;;;;;;;20.00;11.50;;;29.50;1.00;;;;;;5117684;28;20465;-27
2023/09/11 10:33:34;;;;;;;20.35;11.85;;;29.50;52.90;;;;;;5116230;28;20525;-27
2023/09/11 10:36:11;;;;;;;19.63;13.10;;;29.90;47.40;;;;;;5118160;28;20058;-27
2023/09/11 10:38:38;;;;;;;16.50;11.80;;;30.10;18.90;;;;;;5117897;28;20043;-27
2023/09/11 10:41:06;;;;;;;21.98;12.27;;;29.90;99.90;;;;;;5117540;28;20055;-27
2023/09/11 10:43:32;;;;;;;19.27;11.55;;;30.30;19.40;;;;;;5117142;28;20396;-27
2023/09/11 10:46:19;;;;;;;15.32;10.93;;;30.20;1.00;;;;;;5117347;28;20051;-27
2023/09/11 10:48:45;;;;;;;17.05;11.85;;;30.10;1.00;;;;;;5117369;28;20194;-27
2023/09/11 10:51:12;;;;;;;17.75;9.82;;;30.20;1.00;;;;;;5117267;28;20130;-27
2023/09/11 10:53:38;;;;;;;17.30;12.10;;;30.40;21.70;;;;;;5137936;27;20057;-27
2023/09/11 10:56:04;;;;;;;19.75;13.52;;;30.30;1.00;;;;;;5157563;27;20054;-27
2023/09/11 10:58:30;;;;;;;19.20;11.57;;;30.40;1.00;;;;;;5158453;27;20050;-27
2023/09/11 11:00:58;;;;;;;22.25;14.20;;;30.50;1.00;;;;;;5158284;27;20047;-27
2023/09/11 11:03:28;;;;;;;15.75;11.52;;;30.70;1.00;;;;;;5159219;27;20103;-27
2023/09/11 11:05:55;;;;;;;14.57;10.55;;;30.40;1.00;;;;;;5158893;27;20057;-27
2023/09/11 11:08:21;;;;;;;20.63;11.80;;;30.40;1.00;;;;;;5157958;27;20397;-27
2023/09/11 11:10:52;;;;;;;16.80;13.02;;;30.10;1.00;;;;;;5158138;27;20584;-27
2023/09/11 11:13:18;;;;;;;16.95;13.80;;;29.90;1.00;;;;;;5159056;27;20039;-27
2023/09/11 11:15:44;;;;;;;21.95;12.00;;;29.80;80.80;;;;;;5158646;27;20047;-27
2023/09/11 11:18:25;;;;;;;15.55;13.30;;;29.70;99.90;;;;;;5158069;27;20178;-28
2023/09/11 11:21:10;;;;;;;16.23;12.73;;;29.60;99.90;;;;;;5158635;27;20035;-27
2023/09/11 11:23:53;;;;;;;17.65;13.82;;;29.50;99.90;;;;;;5158296;27;20061;-27
2023/09/11 11:26:19;;;;;;;17.00;13.52;;;29.60;99.90;;;;;;5158586;27;20094;-27
2023/09/11 11:28:45;;;;;;;20.08;12.48;;;29.60;99.90;;;;;;5156212;27;20051;-27
2023/09/11 11:31:18;;;;;;;12.85;9.65;;;29.90;99.90;;;;;;5157872;27;20051;-27
2023/09/11 11:33:46;;;;;;;11.05;8.77;;;29.80;99.90;;;;;;5157815;27;20499;-27
2023/09/11 11:36:14;;;;;;;12.45;8.65;;;29.80;1.00;;;;;;5157736;27;20057;-27
2023/09/11 11:38:40;;;;;;;15.05;9.35;;;30.10;1.00;;;;;;5157722;27;20047;-27
2023/09/11 11:41:10;;;;;;;14.43;10.27;;;30.50;1.00;;;;;;5157362;27;20449;-27
2023/09/11 11:43:36;;;;;;;15.35;9.63;;;30.10;1.00;;;;;;5158154;27;20057;-27
2023/09/11 11:46:06;;;;;;;16.27;10.23;;;29.90;1.00;;;;;;5157470;27;20049;-27
2023/09/11 11:48:33;;;;;;;9.13;6.05;;;29.80;29.40;;;;;;5157839;27;20049;-28
2023/09/11 11:50:59;;;;;;;12.25;6.07;;;29.80;99.90;;;;;;5156211;27;20046;-27
2023/09/11 11:53:25;;;;;;;12.05;4.97;;;29.70;99.90;;;;;;5157526;27;20141;-28
2023/09/11 11:55:54;;;;;;;12.02;5.22;;;29.80;99.90;;;;;;5156422;27;20095;-28
2023/09/11 11:58:19;;;;;;;9.40;6.20;;;29.80;99.90;;;;;;5157355;27;20078;-27
2023/09/11 12:00:58;;;;;;;7.28;3.60;;;29.80;99.90;;;;;;5156289;27;20078;-27
2023/09/11 12:03:29;;;;;;;8.43;4.57;;;29.60;99.90;;;;;;5157186;27;20047;-27
2023/09/11 12:05:56;;;;;;;10.93;6.38;;;29.70;99.90;;;;;;5157095;27;20058;-28
2023/09/11 12:08:23;;;;;;;11.70;7.13;;;29.60;99.90;;;;;;5157125;27;20043;-27
2023/09/11 12:10:49;;;;;;;10.38;6.57;;;29.70;99.90;;;;;;5156999;27;20392;-27
2023/09/11 12:13:22;;;;;;;14.07;6.72;;;29.80;1.00;;;;;;5157282;27;20095;-28
2023/09/11 12:15:56;;;;;;;10.85;7.90;;;29.70;1.00;;;;;;5157251;27;20093;-27
2023/09/11 12:18:24;;;;;;;11.25;4.88;;;29.70;1.00;;;;;;5155708;27;20129;-27
2023/09/11 12:20:54;;;;;;;9.55;4.80;;;29.80;99.90;;;;;;5157400;27;20107;-27
2023/09/11 12:23:20;;;;;;;10.00;4.38;;;30.00;99.90;;;;;;5156877;27;20130;-27
2023/09/11 12:25:47;;;;;;;5.80;3.97;;;30.30;99.90;;;;;;5157576;27;20050;-27
2023/09/11 12:28:14;;;;;;;8.98;4.82;;;30.10;99.90;;;;;;5156580;27;20134;-27
2023/09/11 12:30:43;;;;;;;11.43;5.55;;;29.90;99.90;;;;;;5156621;27;20031;-27
2023/09/11 12:33:09;;;;;;;9.80;4.05;;;29.60;99.90;;;;;;5155666;27;20129;-27